Montenegro, Brazil
Current Conditions -  °F | °C
As of 12:00 PM on Friday 28 Nov 2014 (Local Time) from SBCO Reporting Station
Clear Clear  
Wind Chill: 77°   Ceiling: Unl
Heat Index: 79°   Visibility: 6mi
Dew Point: 61°   Wind: 9mph
Humidity: 57%   Direction: 120°ESE
Pressure: 30.03"   Gusts: NA
Location:  29.69°S, 51.46°W
Report Text: SBCO 281400Z 12008KT CAVOK 25/16 Q1017
Loading
Personal Weather Stations






























Interactive Weather Map New forecast layout! Learn more

10-Day Weather Forecast

Advertisements
Track Severe Weather on mobile